ADDS METAR Data INFO
IDs: Format: Raw Decoded Include TAF

Data at: 1406 UTC 24 Feb 2018

KMCW 241353Z AUTO 09009KT 3SM BR FEW120 M08/M10 A3007 RMK AO2 SLP199 I1000 T10831100
KMCW 241253Z AUTO 06006KT 6SM BR CLR M12/M13 A3010 RMK AO2 SLP210 I1000 T11171133
KMCW 241153Z AUTO 05007KT 5SM BR CLR M13/M14 A3011 RMK AO2 SLP213 I1000 I6000 T11281144 11083 21128 58030
KMCW 241053Z AUTO 04006KT 4SM BR CLR M12/M14 A3014 RMK AO2 SLP223 T11221139
KMCW 241023Z AUTO 04004KT 4SM BR SCT001 M12/M13 A3016 RMK AO2 T11171128
KMCW 241015Z AUTO 04005KT 3SM BR BKN001 M11/M13 A3016 RMK AO2 T11111128
KMCW 241004Z AUTO 06004KT 2 1/2SM BR OVC001 M11/M12 A3016 RMK AO2 T11061122
KMCW 240953Z AUTO 06004KT 4SM BR OVC001 M11/M12 A3017 RMK AO2 SLP232 I1000 T11061117
KMCW 240942Z AUTO 04005KT 4SM BR OVC001 M11/M12 A3017 RMK AO2 I1000 T11061117
KMCW 240932Z AUTO 04006KT 2SM BR OVC001 M10/M11 A3018 RMK AO2 I1000 T11001111
KMCW 240918Z AUTO 04007KT 1 1/4SM BR OVC002 M09/M11 A3019 RMK AO2 T10941106
KMCW 240853Z AUTO 04006KT 3/4SM BR VV002 M09/M11 A3020 RMK AO2 PRESFR SLP242 I1000 I3000 T10891106 58024
KMCW 240829Z AUTO 06006KT 1/2SM FZFG VV002 M09/M10 A3023 RMK AO2 I1000 T10891100
KMCW 240753Z AUTO 06005KT 1/4SM FZFG VV002 M09/M10 A3025 RMK AO2 SLP260 I1000 T10891100
KMCW 240730Z AUTO 04005KT 1/4SM FZFG VV002 M09/M11 A3025 RMK AO2 I1000 T10941106
KMCW 240653Z AUTO 00000KT 1/4SM FZFG VV001 M09/M11 A3026 RMK AO2 SLP264 I1000 T10941106
KMCW 240553Z AUTO 00000KT 1/4SM FZFG VV001 M09/M10 A3028 RMK AO2 SLP267 I1001 I6002 T10891100 11056 21117 400001117 58004
KMCW 240531Z AUTO 00000KT 1/4SM FZFG VV001 M09/M09 A3029 RMK AO2 I1000 T10891094
KMCW 240453Z AUTO 00000KT 1/4SM FZFG VV002 M09/M09 A3029 RMK AO2 SLP273 I1001 T10941094
KMCW 240435Z AUTO 36004KT 1/4SM FZFG VV002 M09/M11 A3029 RMK AO2 I1000 T10941106
KMCW 240427Z AUTO 36004KT 1 3/4SM BR BKN003 M10/M11 A3029 RMK AO2 I1000 T11001111
KMCW 240424Z AUTO 36005KT 3SM BR BKN003 M10/M12 A3029 RMK AO2 I1000 T11001117
KMCW 240416Z AUTO 34003KT 4SM BR SCT004 M10/M11 A3029 RMK AO2 T11001111
KMCW 240353Z AUTO 00000KT 4SM BR CLR M11/M12 A3028 RMK AO2 SLP271 I1000 T11061117
KMCW 240253Z AUTO 00000KT 5SM BR CLR M12/M12 A3029 RMK AO2 SLP274 T11171122 55002
KMCW 240153Z AUTO 30006KT 7SM CLR M09/M10 A3029 RMK AO2 SLP271 T10891100
KMCW 240053Z AUTO 29007KT 6SM BR CLR M08/M10 A3029 RMK AO2 SLP272 T10831100
KMCW 232353Z AUTO 29008KT 7SM CLR M06/M08 A3029 RMK AO2 SLP271 T10561078 11028 21056 53013
KMCW 232253Z AUTO 28008KT 7SM CLR M04/M07 A3027 RMK AO2 SLP263 T10391067
KMCW 232153Z AUTO 26010KT 7SM FEW012 M03/M07 A3027 RMK AO2 SLP260 T10331067
KMCW 232121Z AUTO 28012KT 7SM SCT012 M03/M06 A3025 RMK AO2 T10331061
KMCW 232053Z AUTO 27013KT 7SM BKN012 M03/M06 A3025 RMK AO2 SLP255 T10331061 50007
KMCW 232014Z AUTO 29013KT 7SM BKN012 M03/M06 A3024 RMK AO2 T10331061
KMCW 231953Z AUTO 27012KT 8SM FEW011 M03/M06 A3026 RMK AO2 SLP259 T10331061
KMCW 231934Z AUTO 28012KT 7SM SCT011 M03/M06 A3026 RMK AO2 T10331061
KMCW 231853Z AUTO 27012KT 8SM BKN012 M03/M06 A3026 RMK AO2 SLP258 T10331061
KMCW 231753Z AUTO 30011KT M04/M06 A3023 RMK AO2 SLP248 T10391061 11028 21050 51016 $
KMCW 231653Z AUTO 29014KT M05/M07 A3022 RMK AO2 SLP245 T10501072 PWINO FZRANO $
KMCW 231553Z AUTO M04/M07 A3020 RMK AO2 SLP239 T10441072 PWINO FZRANO $
KMCW 231453Z AUTO 28012KT 7SM CLR M04/M06 A3018 RMK AO2 SLP232 T10391061 53024
KMCW 231432Z AUTO 29014KT 8SM SCT010 M04/M06 A3017 RMK AO2 T10441061
KMCW 231353Z AUTO 28014KT 6SM BR OVC010 M04/M06 A3016 RMK AO2 SLP224 T10391061
KMCW 231300Z AUTO 29015KT 7SM BKN011 M04/M06 A3013 RMK AO2 T10391056
KMCW 231253Z AUTO 28013KT 7SM SCT011 M04/M06 A3013 RMK AO2 SLP214 T10391061
KMCW 231246Z AUTO 27011KT 7SM SCT011 M04/M06 A3013 RMK AO2 T10441061
KMCW 231227Z AUTO 26008KT 6SM BR BKN011 OVC034 M03/M06 A3012 RMK AO2 T10331056
KMCW 231153Z AUTO 28012KT 8SM SCT013 BKN036 M03/M05 A3011 RMK AO2 SLP207 60009 70020 I6001 T10281050 10000 21028 50011
KMCW 231151Z AUTO 28013KT 8SM SCT013 BKN036 M03/M05 A3011 RMK AO2
KMCW 231128Z AUTO 28014KT 8SM OVC015 M02/M04 A3011 RMK AO2 T10221039
KMCW 231108Z AUTO 27020KT 10SM OVC011 M02/M03 A3009 RMK AO2 T10171033
KMCW 231053Z AUTO 27016G22KT 10SM BKN009 BKN013 OVC019 M01/M03 A3008 RMK AO2 CIG 006V012 SLP196 T10111028
KMCW 230953Z AUTO 25012KT 10SM BKN008 BKN011 OVC044 M01/M02 A3008 RMK AO2 CIG 005V010 SLP194 T10061017
KMCW 230853Z AUTO 21009KT 6SM BR BKN006 OVC010 00/M01 A3008 RMK AO2 SNE51 SLP193 P0002 60009 I3001 T00001011 56010
KMCW 230848Z AUTO 22009KT 5SM -SN BR BKN006 BKN010 OVC055 00/M01 A3008 RMK AO2 P0002
KMCW 230835Z AUTO 21005KT 2 1/2SM -SN BR BKN004 BKN010 OVC055 00/M01 A3008 RMK AO2 P0002 T00001006
KMCW 230753Z AUTO 19004KT 1 1/2SM -SN BR BKN003 OVC013 00/00 A3008 RMK AO2 SLP197 P0004 T00000000
KMCW 230740Z AUTO 18006KT 1 1/4SM -SN BR BKN003 OVC017 00/M01 A3009 RMK AO2 P0002 T00001006
KMCW 230721Z AUTO 17007KT 2SM -SN BR BKN002 OVC020 00/M01 A3010 RMK AO2 P0001 T00001006
KMCW 230653Z AUTO 14007KT 1 3/4SM -SN BR BKN003 BKN010 OVC020 00/M01 A3011 RMK AO2 UPB0559E07FZRAB07E31SNB31 PRESFR SLP205 P0003 I1001 T00001011
KMCW 230649Z AUTO 15006KT 1 3/4SM -SN BR SCT003 BKN010 OVC018 00/M01 A3012 RMK AO2 UPB0559E07FZRAB07E31SNB31 P0003 I1001
KMCW 230637Z AUTO 15006KT 2SM -SN BR SCT004 BKN010 OVC016 00/M01 A3013 RMK AO2 UPB0559E07FZRAB07E31SNB31 P0002 I1001 T00001011
KMCW 230627Z AUTO 16007KT 2 1/2SM -FZRA BR SCT004 OVC011 00/M01 A3014 RMK AO2 UPB0559E07FZRAB07 P0001 I1001 T00001006
KMCW 230612Z AUTO 19004KT 3SM -FZRA BR BKN004 OVC011 00/M01 A3015 RMK AO2 UPB0559E07FZRAB07 P0001 I1000 T00001006
KMCW 230553Z AUTO 19005KT 2 1/2SM BR BKN004 OVC009 00/M01 A3016 RMK AO2 UPB35E40FZRAE35 SLP222 P0001 60009 I1004 I6017 T00001006 10000 21022 400001067 50002
KMCW 230541Z AUTO 19005KT 3SM BR BKN004 OVC010 00/M01 A3016 RMK AO2 UPB35E40FZRAE35 P0001 I1004 T00001006
KMCW 230531Z AUTO 19006KT 3SM -FZRA BR OVC004 00/M01 A3016 RMK AO2 P0001 I1004 T00001006
KMCW 230505Z AUTO 19004KT 2 1/2SM -FZRA BR OVC007 00/00 A3017 RMK AO2 P0000 I1001 T00000000
KMCW 230453Z AUTO 18008KT 3SM -FZRA BR OVC006 00/00 A3017 RMK AO2 FZRAB0354 CIG 003V010 SLP227 P0007 I1004 T00000000
KMCW 230450Z AUTO 18006KT 3SM -FZRA BR OVC004 00/00 A3017 RMK AO2 FZRAB0354 CIG 003V008 P0006 I1004
KMCW 230439Z AUTO 18010KT 2SM -FZRA BR OVC004 00/00 A3018 RMK AO2 FZRAB0354 CIG 003V008 P0006 I1004 T00000000
KMCW 230431Z AUTO 19008KT 1 3/4SM FZRA BR OVC004 00/00 A3018 RMK AO2 FZRAB0354 P0004 I1003 T00000000
KMCW 230416Z AUTO 15012KT 4SM -FZRA BR OVC003 00/M01 A3016 RMK AO2 FZRAB0354 P0002 I1002 T00001006
KMCW 230400Z AUTO 14012KT 2SM -FZRA BR OVC003 00/M01 A3015 RMK AO2 FZRAB0354 P0001 I1000 T00001011
KMCW 230353Z AUTO 14015G21KT 2 1/2SM BR OVC003 M01/M01 A3015 RMK AO2 UPB40E49FZRAE14 SLP221 P0000 I1004 T10061011
KMCW 230349Z AUTO 13012G21KT 2 1/2SM BR OVC003 M01/M01 A3015 RMK AO2 UPB40E49FZRAE14 P0000 I1003
KMCW 230320Z AUTO 13016KT 4SM BR OVC004 M01/M02 A3017 RMK AO2 FZRAE14 P0000 I1002 T10061017
KMCW 230253Z AUTO 12019G24KT 3SM -FZRA BR OVC004 M01/M02 A3017 RMK AO2 PK WND 12027/0215 UPB31E35FZRAE31B50 SLP227 P0001 60001 I1002 I3005 T10061017 58024
KMCW 230237Z AUTO 12016KT 6SM BR OVC004 M01/M02 A3017 RMK AO2 PK WND 12027/0215 UPB31E35FZRAE31 P0001 I1001 T10061017
KMCW 230210Z AUTO 12019G24KT 3SM -FZRA BR OVC003 M01/M02 A3019 RMK AO2 P0001 I1001 T10111017